Time;durP1;ratioP1;P1;durP2;ratioP2;P2;SDS_P1;SDS_P2;PMS_P1;PMS_P2;Temp;Humidity;BMP_temperature;BMP_pressure;BME280_temperature;BME280_humidity;BME280_pressure;Samples;Min_cycle;Max_cycle;Signal;HPM_P1;HPM_P2
2022/05/21 00:00:23;;;;;;;16.77;8.38;;;10.30;99.90;;;;;;6185650;23;20020;-84
2022/05/21 00:02:50;;;;;;;16.05;8.90;;;10.20;99.90;;;;;;6157823;23;20013;-84
2022/05/21 00:05:17;;;;;;;23.65;9.57;;;10.20;99.90;;;;;;6158887;23;20020;-83
2022/05/21 00:07:43;;;;;;;21.65;10.40;;;10.20;99.90;;;;;;6184750;23;20088;-83
2022/05/21 00:10:12;;;;;;;20.00;10.65;;;10.20;99.90;;;;;;6157413;23;20063;-84
2022/05/21 00:12:38;;;;;;;23.05;12.05;;;10.20;99.90;;;;;;6185722;23;20043;-84
2022/05/21 00:15:04;;;;;;;22.08;11.80;;;10.20;99.90;;;;;;6159090;23;20071;-84
2022/05/21 00:17:30;;;;;;;23.80;13.20;;;10.20;99.90;;;;;;6157838;23;20017;-84
2022/05/21 00:19:55;;;;;;;27.25;14.13;;;10.10;99.90;;;;;;6185057;23;20020;-84
2022/05/21 00:22:21;;;;;;;26.67;14.20;;;10.20;99.90;;;;;;6185108;23;20017;-84
2022/05/21 00:24:46;;;;;;;24.48;14.00;;;10.20;99.90;;;;;;6157692;23;20027;-84
2022/05/21 00:27:12;;;;;;;32.38;15.50;;;10.20;99.90;;;;;;6185468;23;20021;-84
2022/05/21 00:29:38;;;;;;;30.70;15.88;;;10.10;99.90;;;;;;6183979;23;20032;-84
2022/05/21 00:32:04;;;;;;;28.50;15.52;;;10.20;99.90;;;;;;6184912;23;20128;-84
2022/05/21 00:34:31;;;;;;;32.60;16.10;;;10.20;99.90;;;;;;6158735;23;20463;-84
2022/05/21 00:36:57;;;;;;;30.25;16.25;;;10.10;99.90;;;;;;6184125;23;20060;-84
2022/05/21 00:39:23;;;;;;;31.27;16.38;;;10.20;99.90;;;;;;6185399;23;20015;-84
2022/05/21 00:41:49;;;;;;;32.45;16.02;;;10.20;99.90;;;;;;6158152;23;20489;-83
2022/05/21 00:44:16;;;;;;;30.90;16.75;;;10.10;99.90;;;;;;6157512;23;20092;-84
2022/05/21 00:46:44;;;;;;;29.08;15.60;;;10.10;99.90;;;;;;6184861;23;20017;-84
2022/05/21 00:49:13;;;;;;;28.75;16.35;;;10.10;99.90;;;;;;6158432;23;20017;-84
2022/05/21 00:51:46;;;;;;;34.67;17.42;;;10.20;99.90;;;;;;6183963;23;20021;-84
2022/05/21 00:54:13;;;;;;;31.10;15.23;;;10.10;99.90;;;;;;6158624;23;20437;-84
2022/05/21 00:56:50;;;;;;;33.80;16.90;;;10.20;99.90;;;;;;6158307;23;20083;-83
2022/05/21 01:02:03;;;;;;;33.53;17.13;;;10.20;99.90;;;;;;6184699;23;20050;-84
2022/05/21 01:04:31;;;;;;;32.33;17.27;;;10.20;99.90;;;;;;6158420;23;20341;-84
2022/05/21 01:06:59;;;;;;;36.50;18.55;;;10.20;99.90;;;;;;6183982;23;20013;-84
2022/05/21 01:09:24;;;;;;;37.15;18.88;;;10.20;99.90;;;;;;6186651;23;20045;-84
2022/05/21 01:11:50;;;;;;;38.08;19.05;;;10.30;99.90;;;;;;6158940;23;20013;-84
2022/05/21 01:14:20;;;;;;;38.63;20.45;;;10.30;99.90;;;;;;6160343;23;20013;-83
2022/05/21 01:16:47;;;;;;;39.88;20.13;;;10.30;99.90;;;;;;6160302;23;20021;-84
2022/05/21 01:19:13;;;;;;;43.70;21.27;;;10.30;99.90;;;;;;6186573;23;20013;-84
2022/05/21 01:21:39;;;;;;;42.83;21.63;;;10.30;99.90;;;;;;6186716;23;20409;-84
2022/05/21 01:24:06;;;;;;;39.53;21.83;;;10.30;99.90;;;;;;6160277;23;20020;-84
2022/05/21 01:26:34;;;;;;;44.65;22.63;;;10.30;99.90;;;;;;6186120;23;20017;-84
2022/05/21 01:29:03;;;;;;;40.83;21.70;;;10.30;99.90;;;;;;6186147;23;20745;-84
2022/05/21 01:31:32;;;;;;;48.72;21.63;;;10.40;99.90;;;;;;6160195;23;20252;-84
2022/05/21 01:33:59;;;;;;;45.22;20.75;;;10.30;99.90;;;;;;6185693;23;20024;-84
2022/05/21 01:36:24;;;;;;;45.90;21.73;;;10.30;99.90;;;;;;6187101;23;20153;-84
2022/05/21 01:38:50;;;;;;;41.67;21.40;;;10.30;99.90;;;;;;6186249;23;20503;-84
2022/05/21 01:41:15;;;;;;;44.95;22.80;;;10.40;99.90;;;;;;6159184;23;20017;-84
2022/05/21 01:46:26;;;;;;;44.45;23.45;;;10.60;99.90;;;;;;6186750;23;20092;-84
2022/05/21 01:48:52;;;;;;;51.63;23.65;;;10.70;99.90;;;;;;6159038;23;20056;-84
2022/05/21 01:51:18;;;;;;;50.25;24.55;;;10.70;99.90;;;;;;6160003;23;20077;-85
2022/05/21 01:53:44;;;;;;;45.63;24.20;;;10.70;99.90;;;;;;6159780;23;20441;-84
2022/05/21 01:56:11;;;;;;;48.15;25.80;;;10.80;99.90;;;;;;6159302;23;20342;-84
2022/05/21 01:58:37;;;;;;;43.70;25.13;;;10.80;99.90;;;;;;6186677;23;20096;-84
2022/05/21 02:01:04;;;;;;;48.90;26.15;;;10.90;99.90;;;;;;6158985;23;20041;-83
2022/05/21 02:03:29;;;;;;;47.53;25.08;;;11.00;99.90;;;;;;6159098;23;20310;-84
2022/05/21 02:05:55;;;;;;;46.42;26.00;;;11.10;99.90;;;;;;6185786;23;20044;-83
2022/05/21 02:08:21;;;;;;;49.28;27.38;;;11.00;99.90;;;;;;6159037;23;20063;-84
2022/05/21 02:10:47;;;;;;;59.20;27.73;;;11.00;99.90;;;;;;6185683;23;20032;-84
2022/05/21 02:13:16;;;;;;;52.47;28.27;;;11.10;99.90;;;;;;6186510;23;20025;-84
2022/05/21 02:15:42;;;;;;;52.30;29.67;;;11.10;99.90;;;;;;6185613;23;20013;-85
2022/05/21 02:18:08;;;;;;;51.63;28.80;;;11.20;99.90;;;;;;6186703;23;20074;-84
2022/05/21 02:20:33;;;;;;;48.85;27.40;;;11.10;99.90;;;;;;6159349;23;20358;-85
2022/05/21 02:22:59;;;;;;;49.60;29.33;;;11.10;99.90;;;;;;6184841;23;20017;-85
2022/05/21 02:25:24;;;;;;;48.88;28.13;;;11.10;99.90;;;;;;6186589;23;20024;-84
2022/05/21 02:27:50;;;;;;;48.40;29.13;;;11.10;99.90;;;;;;6185794;23;20013;-85
2022/05/21 02:30:16;;;;;;;52.83;30.30;;;11.10;99.90;;;;;;6158985;23;20110;-85
2022/05/21 02:32:41;;;;;;;54.08;30.27;;;11.20;99.90;;;;;;6186128;23;20442;-85
2022/05/21 02:35:07;;;;;;;50.67;28.83;;;11.20;99.90;;;;;;6159844;23;20104;-84
2022/05/21 02:40:17;;;;;;;55.72;30.05;;;11.20;99.90;;;;;;6159572;23;20017;-84
2022/05/21 02:42:48;;;;;;;50.78;28.90;;;11.20;99.90;;;;;;6185308;23;20097;-85
2022/05/21 02:45:20;;;;;;;51.28;28.52;;;11.20;99.90;;;;;;6159027;23;20025;-85
2022/05/21 02:47:46;;;;;;;48.50;27.33;;;11.20;99.90;;;;;;6184551;23;20071;-85
2022/05/21 02:50:14;;;;;;;52.35;29.35;;;11.30;99.90;;;;;;6159018;23;20021;-84
2022/05/21 02:52:40;;;;;;;47.63;28.10;;;11.30;99.90;;;;;;6185577;23;20508;-84
2022/05/21 02:55:07;;;;;;;49.90;28.45;;;11.30;99.90;;;;;;6186531;23;20013;-84
2022/05/21 02:57:32;;;;;;;45.55;26.95;;;11.30;99.90;;;;;;6185157;23;20788;-84
2022/05/21 03:00:06;;;;;;;43.25;25.45;;;11.40;99.90;;;;;;6185746;23;20021;-85
2022/05/21 03:02:31;;;;;;;43.92;26.50;;;11.40;99.90;;;;;;6186092;23;20532;-84
2022/05/21 03:04:57;;;;;;;36.80;22.67;;;11.30;99.90;;;;;;6185094;23;20045;-85
2022/05/21 03:07:23;;;;;;;40.13;24.55;;;11.40;99.90;;;;;;6159919;23;20028;-84
2022/05/21 03:12:32;;;;;;;;;;;11.50;99.90;;;;;;6185860;23;20024;-84
2022/05/21 03:14:58;;;;;;;39.38;22.77;;;11.50;99.90;;;;;;6159268;23;19991;-85
2022/05/21 03:17:26;;;;;;;41.30;23.38;;;11.50;99.90;;;;;;6186148;23;20090;-84
2022/05/21 03:19:52;;;;;;;40.17;24.27;;;11.50;99.90;;;;;;6184691;23;20024;-85
2022/05/21 03:22:18;;;;;;;38.95;22.88;;;11.50;99.90;;;;;;6159628;23;20025;-84
2022/05/21 03:24:44;;;;;;;37.05;21.48;;;11.50;99.90;;;;;;6185895;23;20023;-85
2022/05/21 03:27:10;;;;;;;39.65;23.13;;;11.50;99.90;;;;;;6185504;23;20049;-85
2022/05/21 03:29:37;;;;;;;42.78;23.58;;;11.40;99.90;;;;;;6159338;23;20070;-84
2022/05/21 03:32:03;;;;;;;33.83;20.02;;;11.50;99.90;;;;;;6158986;23;20092;-85
2022/05/21 03:34:29;;;;;;;39.78;22.38;;;11.60;99.90;;;;;;6158484;23;20024;-84
2022/05/21 03:36:55;;;;;;;38.83;20.58;;;11.50;99.90;;;;;;6185795;23;20025;-84
2022/05/21 03:39:20;;;;;;;39.03;21.92;;;11.60;99.90;;;;;;6185966;23;20437;-85
2022/05/21 03:41:46;;;;;;;35.08;20.77;;;11.60;99.90;;;;;;6158162;23;20399;-84
2022/05/21 03:44:12;;;;;;;36.60;20.23;;;11.60;99.90;;;;;;6185762;23;20067;-85
2022/05/21 03:46:38;;;;;;;37.22;21.05;;;11.60;99.90;;;;;;6184593;23;20017;-84
2022/05/21 03:49:05;;;;;;;36.80;20.15;;;11.60;99.90;;;;;;6185566;23;20457;-85
2022/05/21 03:51:31;;;;;;;39.65;20.67;;;11.70;99.90;;;;;;6185823;23;20009;-84
2022/05/21 03:53:56;;;;;;;35.28;18.73;;;11.70;99.90;;;;;;6184701;23;20135;-85
2022/05/21 03:56:22;;;;;;;35.63;18.90;;;11.70;99.90;;;;;;6185890;23;20378;-85
2022/05/21 03:58:48;;;;;;;33.20;18.98;;;11.70;99.90;;;;;;6185393;23;20013;-84
2022/05/21 04:01:14;;;;;;;32.17;17.67;;;11.70;99.90;;;;;;6184732;23;20429;-84
2022/05/21 04:03:40;;;;;;;35.58;18.55;;;11.70;99.90;;;;;;6158767;23;20032;-84
2022/05/21 04:06:06;;;;;;;33.65;18.65;;;11.80;99.90;;;;;;6158366;23;20360;-85
2022/05/21 04:08:31;;;;;;;35.53;19.65;;;11.80;99.90;;;;;;6184497;23;20464;-84
2022/05/21 04:10:57;;;;;;;33.28;18.55;;;11.80;99.90;;;;;;6185074;23;20017;-85
2022/05/21 04:13:22;;;;;;;35.65;18.45;;;11.90;99.90;;;;;;6158901;23;19922;-84
2022/05/21 04:15:48;;;;;;;36.13;19.45;;;11.90;99.90;;;;;;6184285;23;20044;-85
2022/05/21 04:18:13;;;;;;;34.67;18.27;;;11.90;99.90;;;;;;6185523;23;20021;-85
2022/05/21 04:20:39;;;;;;;39.53;18.95;;;11.90;99.90;;;;;;6185459;23;20460;-85
2022/05/21 04:23:05;;;;;;;33.53;18.23;;;11.80;99.90;;;;;;6184484;23;20036;-84
2022/05/21 04:25:31;;;;;;;35.65;18.40;;;11.80;99.90;;;;;;6185556;23;20017;-84
2022/05/21 04:27:56;;;;;;;33.10;18.52;;;11.80;99.90;;;;;;6185044;23;20455;-84
2022/05/21 04:30:28;;;;;;;32.65;18.80;;;11.80;99.90;;;;;;6184400;23;20017;-85
2022/05/21 04:32:55;;;;;;;39.03;19.20;;;11.80;99.90;;;;;;6185349;23;20079;-84
2022/05/21 04:35:22;;;;;;;32.30;17.65;;;11.90;99.90;;;;;;6185680;23;20382;-84
2022/05/21 04:37:48;;;;;;;32.78;17.75;;;12.60;99.90;;;;;;6157562;23;20091;-85
2022/05/21 04:40:17;;;;;;;33.22;17.58;;;11.90;99.90;;;;;;6185445;23;20477;-85
2022/05/21 04:42:43;;;;;;;30.27;15.95;;;11.90;99.90;;;;;;6184319;23;20072;-84
2022/05/21 04:45:10;;;;;;;32.25;16.85;;;11.90;99.90;;;;;;6185094;23;20013;-84
2022/05/21 04:47:36;;;;;;;33.65;16.65;;;11.90;99.90;;;;;;6158269;23;20028;-84
2022/05/21 04:50:03;;;;;;;33.95;17.48;;;11.90;99.90;;;;;;6184711;23;20013;-92
2022/05/21 04:52:28;;;;;;;29.23;15.80;;;12.00;99.90;;;;;;6161350;23;20049;-95
2022/05/21 04:54:54;;;;;;;30.85;16.00;;;12.40;99.90;;;;;;6162230;23;20349;-92
2022/05/21 04:57:20;;;;;;;29.35;15.88;;;12.60;99.90;;;;;;6187020;23;20021;-89
2022/05/21 04:59:46;;;;;;;29.00;15.48;;;12.00;99.90;;;;;;6198138;23;20021;-92
2022/05/21 05:02:13;;;;;;;30.88;15.38;;;11.80;99.90;;;;;;6175855;23;20017;-94
2022/05/21 05:04:38;;;;;;;31.10;14.80;;;12.10;99.90;;;;;;6162771;23;20017;-96
2022/05/21 05:07:08;;;;;;;27.75;13.88;;;12.10;99.90;;;;;;6165487;23;20083;-94
2022/05/21 05:09:42;;;;;;;30.30;14.05;;;12.20;99.90;;;;;;6188414;23;20017;-94
2022/05/21 05:12:08;;;;;;;27.10;14.13;;;12.20;99.90;;;;;;6188341;23;20020;-96
2022/05/21 05:14:36;;;;;;;30.50;15.38;;;12.20;99.90;;;;;;6191358;23;20391;-96
2022/05/21 05:17:03;;;;;;;29.05;14.05;;;12.20;99.90;;;;;;6161112;23;20013;-96
2022/05/21 05:19:33;;;;;;;29.90;13.85;;;12.20;99.90;;;;;;6162766;23;20052;-96
2022/05/21 05:22:02;;;;;;;25.23;12.57;;;11.90;99.90;;;;;;6165869;23;20073;-96
2022/05/21 05:24:32;;;;;;;27.20;13.13;;;12.40;99.90;;;;;;6167307;23;20070;-96
2022/05/21 05:27:01;;;;;;;32.08;11.90;;;12.40;99.90;;;;;;6161626;23;20017;-93
2022/05/21 05:29:27;;;;;;;24.42;12.13;;;12.50;99.90;;;;;;6187608;23;20086;-94
2022/05/21 05:31:52;;;;;;;23.73;11.73;;;12.70;99.90;;;;;;6186884;23;20011;-95
2022/05/21 05:34:18;;;;;;;23.33;10.82;;;12.80;99.90;;;;;;6159306;23;20017;-92
2022/05/21 05:36:43;;;;;;;22.88;10.93;;;12.60;99.90;;;;;;6158804;23;20342;-89
2022/05/21 05:39:09;;;;;;;26.10;10.18;;;12.90;99.90;;;;;;6161079;23;20068;-93
2022/05/21 05:41:38;;;;;;;21.42;9.23;;;13.00;99.90;;;;;;6158930;23;20389;-91
2022/05/21 05:44:04;;;;;;;20.80;9.07;;;13.10;99.90;;;;;;6158568;23;20013;-91
2022/05/21 05:46:30;;;;;;;22.23;8.77;;;13.10;99.90;;;;;;6158127;23;20021;-91
2022/05/21 05:48:56;;;;;;;18.55;8.05;;;13.10;99.90;;;;;;6158461;23;20009;-92
2022/05/21 05:51:21;;;;;;;27.45;8.13;;;13.10;99.90;;;;;;6185307;23;20017;-92
2022/05/21 05:53:48;;;;;;;20.80;7.15;;;13.20;99.90;;;;;;6187543;23;20013;-93
2022/05/21 05:56:15;;;;;;;16.98;6.80;;;13.30;99.90;;;;;;6161277;23;20021;-94
2022/05/21 06:01:25;;;;;;;15.02;6.97;;;13.40;99.90;;;;;;6160521;23;20021;-93
2022/05/21 06:03:52;;;;;;;14.40;6.20;;;13.50;99.90;;;;;;6162388;23;20009;-93
2022/05/21 06:06:17;;;;;;;18.50;5.95;;;13.50;99.90;;;;;;6161167;23;20024;-91
2022/05/21 06:08:46;;;;;;;17.77;5.57;;;13.70;99.90;;;;;;6184621;23;20024;-91
2022/05/21 06:11:14;;;;;;;16.92;5.22;;;13.80;99.90;;;;;;6159663;23;20029;-91
2022/05/21 06:13:40;;;;;;;21.20;5.10;;;13.80;99.90;;;;;;6159505;23;20024;-92
2022/05/21 06:16:06;;;;;;;15.80;4.30;;;13.70;99.90;;;;;;6196732;23;20009;-92
2022/05/21 06:18:47;;;;;;;14.05;4.40;;;13.70;99.90;;;;;;6161570;23;20546;-95
2022/05/21 06:21:12;;;;;;;15.52;4.47;;;14.00;99.90;;;;;;6161283;23;20519;-90
2022/05/21 06:23:38;;;;;;;14.32;5.05;;;13.60;99.90;;;;;;6161175;23;20017;-91
2022/05/21 06:26:04;;;;;;;15.43;4.32;;;13.60;99.90;;;;;;6186879;23;20472;-89
2022/05/21 06:28:30;;;;;;;12.02;3.78;;;13.80;99.90;;;;;;6159105;23;20107;-90
2022/05/21 06:30:56;;;;;;;13.95;3.90;;;13.90;99.90;;;;;;6186348;23;20024;-91
2022/05/21 06:33:25;;;;;;;14.70;3.63;;;13.90;99.90;;;;;;6187191;23;20017;-90
2022/05/21 06:36:22;;;;;;;12.10;3.50;;;13.90;99.90;;;;;;6185950;23;20009;-91
2022/05/21 06:38:48;;;;;;;13.98;3.72;;;13.90;99.90;;;;;;6186445;23;20040;-93
2022/05/21 06:41:13;;;;;;;16.52;3.78;;;14.10;99.90;;;;;;6160549;23;20488;-89
2022/05/21 06:43:39;;;;;;;12.73;3.50;;;14.20;99.90;;;;;;6185652;23;20017;-90
2022/05/21 06:46:05;;;;;;;13.77;4.13;;;14.20;99.90;;;;;;6159722;23;20098;-87
2022/05/21 06:48:31;;;;;;;13.02;3.55;;;14.30;99.90;;;;;;6159302;23;20500;-87
2022/05/21 06:50:57;;;;;;;15.40;3.70;;;14.40;99.90;;;;;;6183193;23;20021;-86
2022/05/21 06:53:22;;;;;;;14.32;3.67;;;14.50;99.90;;;;;;6186240;23;20338;-86
2022/05/21 06:55:48;;;;;;;16.92;3.90;;;14.50;99.90;;;;;;6185437;23;20048;-85
2022/05/21 06:58:13;;;;;;;18.08;4.13;;;14.60;99.90;;;;;;6184900;23;20028;-85
2022/05/21 07:00:39;;;;;;;14.02;3.53;;;14.70;99.90;;;;;;6185693;23;20080;-85
2022/05/21 07:03:04;;;;;;;13.10;3.38;;;14.70;99.90;;;;;;6186230;23;20009;-85
2022/05/21 07:08:19;;;;;;;14.05;3.53;;;14.70;99.90;;;;;;6159293;23;20357;-85
2022/05/21 07:10:45;;;;;;;12.18;3.65;;;14.80;99.90;;;;;;6157927;23;20112;-85
2022/05/21 07:13:11;;;;;;;12.52;3.35;;;15.00;99.90;;;;;;6159028;23;20106;-85
2022/05/21 07:15:37;;;;;;;14.50;3.50;;;15.10;99.90;;;;;;6159216;23;20471;-85
2022/05/21 07:18:03;;;;;;;13.88;3.55;;;15.00;99.90;;;;;;6158177;23;20013;-87
2022/05/21 07:20:33;;;;;;;15.60;3.53;;;15.00;99.90;;;;;;6185754;23;20021;-90
2022/05/21 07:23:00;;;;;;;13.07;3.85;;;15.00;99.90;;;;;;6159219;23;20517;-90
2022/05/21 07:25:29;;;;;;;14.25;4.15;;;15.00;99.90;;;;;;6158439;23;20028;-86
2022/05/21 07:27:54;;;;;;;13.85;3.60;;;15.00;99.90;;;;;;6185557;23;20013;-85
2022/05/21 07:30:21;;;;;;;11.88;3.20;;;15.20;99.90;;;;;;6185900;23;20021;-85
2022/05/21 07:32:50;;;;;;;12.88;3.42;;;15.30;99.90;;;;;;6158775;23;20103;-85
2022/05/21 07:35:18;;;;;;;16.45;3.70;;;15.50;99.90;;;;;;6185874;23;20017;-86
2022/05/21 07:37:44;;;;;;;12.07;3.28;;;15.60;99.90;;;;;;6158906;23;20532;-85
2022/05/21 07:40:10;;;;;;;9.88;2.92;;;15.60;99.90;;;;;;6184794;23;20024;-87
2022/05/21 07:42:37;;;;;;;10.52;2.75;;;15.70;99.90;;;;;;6159060;23;20070;-85
2022/05/21 07:45:05;;;;;;;12.77;3.88;;;15.70;99.90;;;;;;6159072;23;20017;-86
2022/05/21 07:47:30;;;;;;;10.90;3.28;;;15.60;99.90;;;;;;6158433;23;20021;-86
2022/05/21 07:49:56;;;;;;;13.73;4.32;;;15.50;99.90;;;;;;6159943;23;20023;-85
2022/05/21 07:52:27;;;;;;;10.65;2.85;;;15.70;99.90;;;;;;6159229;23;20029;-85
2022/05/21 07:54:54;;;;;;;14.52;3.28;;;15.60;99.90;;;;;;6158034;23;20024;-85
2022/05/21 07:57:20;;;;;;;13.15;3.20;;;15.70;99.90;;;;;;6185806;23;20017;-85
2022/05/21 07:59:45;;;;;;;11.57;3.13;;;15.60;99.90;;;;;;6159807;23;20063;-86
2022/05/21 08:02:15;;;;;;;12.02;3.13;;;15.60;99.90;;;;;;6191227;23;20013;-85
2022/05/21 08:04:41;;;;;;;12.27;3.10;;;15.70;99.90;;;;;;6165939;23;20067;-86
2022/05/21 08:07:07;;;;;;;10.90;3.10;;;15.70;99.90;;;;;;6184646;23;20017;-86
2022/05/21 08:09:32;;;;;;;10.70;3.00;;;15.70;99.90;;;;;;6185843;23;20021;-86
2022/05/21 08:11:58;;;;;;;11.50;3.05;;;15.60;99.90;;;;;;6158294;23;20021;-85
2022/05/21 08:14:23;;;;;;;9.68;2.80;;;15.80;99.90;;;;;;6184323;23;20025;-86
2022/05/21 08:16:50;;;;;;;14.07;3.47;;;15.90;99.90;;;;;;6185009;23;20013;-84
2022/05/21 08:19:16;;;;;;;11.85;2.75;;;16.00;99.90;;;;;;6185319;23;20017;-85
2022/05/21 08:21:42;;;;;;;14.07;3.03;;;15.90;99.90;;;;;;6184412;23;20049;-85
2022/05/21 08:27:00;;;;;;;12.00;2.75;;;15.70;99.90;;;;;;6158604;23;20021;-85
2022/05/21 08:29:31;;;;;;;11.43;3.05;;;15.80;99.90;;;;;;6184386;23;20032;-85
2022/05/21 08:31:57;;;;;;;9.18;2.72;;;15.50;99.90;;;;;;6158358;23;20021;-84
2022/05/21 08:34:24;;;;;;;12.65;2.60;;;15.40;99.90;;;;;;6158975;23;20013;-85
2022/05/21 08:36:49;;;;;;;11.77;3.05;;;15.30;99.90;;;;;;6184278;23;20084;-86
2022/05/21 08:39:17;;;;;;;11.10;2.60;;;15.20;99.90;;;;;;6156790;23;20479;-85
2022/05/21 08:41:56;;;;;;;11.57;3.17;;;15.00;99.90;;;;;;6157427;23;20100;-85
2022/05/21 08:44:33;;;;;;;10.38;2.80;;;15.20;99.90;;;;;;6184356;23;20450;-84
2022/05/21 08:47:04;;;;;;;11.35;2.90;;;15.50;99.90;;;;;;6158295;23;20021;-86
2022/05/21 08:49:35;;;;;;;11.10;2.85;;;15.90;99.90;;;;;;6184327;23;20076;-84
2022/05/21 08:52:18;;;;;;;11.73;2.92;;;16.20;99.90;;;;;;6157949;23;20449;-85
2022/05/21 08:54:47;;;;;;;10.50;2.78;;;16.50;99.90;;;;;;6158127;23;20021;-85
2022/05/21 08:57:24;;;;;;;10.77;3.00;;;16.50;99.90;;;;;;6157749;23;20017;-85
2022/05/21 09:00:17;;;;;;;11.75;3.10;;;16.60;99.90;;;;;;6184323;23;20378;-84
2022/05/21 09:02:42;;;;;;;12.07;2.90;;;16.50;99.90;;;;;;6146225;23;20476;-84
2022/05/21 09:05:11;;;;;;;10.32;3.08;;;16.60;99.90;;;;;;6157440;23;20013;-84
2022/05/21 09:08:08;;;;;;;12.32;2.63;;;16.70;99.90;;;;;;6184851;23;20024;-85
2022/05/21 09:10:40;;;;;;;;;;;16.60;99.90;;;;;;6152978;23;20021;-85
2022/05/21 09:13:16;;;;;;;11.98;2.60;;;16.40;99.90;;;;;;6153212;23;19971;-85
2022/05/21 09:18:29;;;;;;;9.60;2.45;;;16.80;99.90;;;;;;6154368;23;20029;-85
2022/05/21 09:21:13;;;;;;;11.48;2.80;;;17.10;99.90;;;;;;6153032;23;20077;-85
2022/05/21 09:23:50;;;;;;;11.45;2.72;;;17.30;99.90;;;;;;6152811;23;20024;-84
2022/05/21 09:26:18;;;;;;;10.35;2.17;;;17.50;99.90;;;;;;6152548;23;20018;-85
2022/05/21 09:28:43;;;;;;;10.40;2.50;;;17.60;99.90;;;;;;6155172;23;20093;-84
2022/05/21 09:31:10;;;;;;;9.05;2.20;;;17.30;99.90;;;;;;6154242;23;20053;-86
2022/05/21 09:33:43;;;;;;;10.15;2.65;;;17.10;99.90;;;;;;6157136;23;20018;-84
2022/05/21 09:36:17;;;;;;;10.15;2.40;;;16.70;99.90;;;;;;6155247;23;20438;-84
2022/05/21 09:38:54;;;;;;;10.45;2.00;;;16.40;99.90;;;;;;6155840;23;20021;-85
2022/05/21 09:41:22;;;;;;;9.25;2.20;;;16.50;99.90;;;;;;6155125;23;20022;-85
2022/05/21 09:46:43;;;;;;;;;;;16.70;99.90;;;;;;6156025;23;20018;-85
2022/05/21 09:49:23;;;;;;;10.50;2.47;;;16.60;99.90;;;;;;6156513;23;20237;-85
2022/05/21 09:52:00;;;;;;;9.85;2.58;;;16.60;99.90;;;;;;6156040;23;20096;-84
2022/05/21 09:54:33;;;;;;;12.00;2.70;;;16.60;99.90;;;;;;6156014;23;20013;-84
2022/05/21 09:56:59;;;;;;;12.20;2.30;;;16.70;99.90;;;;;;6155098;23;20021;-84
2022/05/21 09:59:32;;;;;;;10.05;2.35;;;16.50;99.90;;;;;;6155707;23;20010;-83
2022/05/21 10:02:14;;;;;;;12.18;2.22;;;16.50;99.90;;;;;;6156532;23;20378;-84
2022/05/21 10:04:49;;;;;;;12.82;2.63;;;16.40;99.90;;;;;;6154631;23;20009;-84
2022/05/21 10:13:09;;;;;;;10.07;2.20;;;17.10;99.90;;;;;;6159194;23;20319;-84
2022/05/21 10:15:50;;;;;;;11.18;2.10;;;17.30;99.90;;;;;;6184935;23;20453;-84
2022/05/21 10:18:26;;;;;;;8.70;2.08;;;17.50;99.90;;;;;;6186944;23;20021;-85
2022/05/21 10:20:59;;;;;;;9.32;2.20;;;17.60;99.90;;;;;;6187576;23;20330;-86
2022/05/21 10:23:46;;;;;;;8.60;2.15;;;17.90;99.90;;;;;;6186837;23;20040;-87
2022/05/21 10:26:33;;;;;;;11.65;2.55;;;18.00;99.90;;;;;;6186214;23;20013;-87
2022/05/21 10:29:36;;;;;;;10.68;2.42;;;18.10;99.90;;;;;;6158556;23;20359;-89
2022/05/21 10:32:17;;;;;;;8.50;2.30;;;18.00;99.90;;;;;;6186261;23;20096;-87
2022/05/21 10:35:34;;;;;;;8.82;2.50;;;17.70;99.90;;;;;;6184892;23;20020;-87
2022/05/21 10:38:26;;;;;;;9.25;2.35;;;17.30;99.90;;;;;;6147532;23;20021;-87
2022/05/21 10:41:20;;;;;;;10.02;2.20;;;17.20;99.90;;;;;;6185534;23;20017;-88
2022/05/21 10:43:58;;;;;;;;;;;17.40;99.90;;;;;;6185121;23;20028;-87
2022/05/21 10:47:08;;;;;;;11.18;2.53;;;17.70;99.90;;;;;;6186329;23;19923;-87
2022/05/21 10:50:03;;;;;;;9.88;2.58;;;17.60;99.90;;;;;;6146992;23;20469;-85
2022/05/21 10:52:47;;;;;;;8.65;2.03;;;17.70;99.90;;;;;;6183984;23;20381;-86
2022/05/21 10:55:25;;;;;;;9.65;2.03;;;18.10;99.90;;;;;;6159710;23;20017;-86
2022/05/21 10:58:13;;;;;;;9.27;2.42;;;17.90;99.90;;;;;;6184635;23;20511;-86
2022/05/21 11:01:09;;;;;;;9.73;2.58;;;18.00;99.90;;;;;;6185771;23;20131;-85
2022/05/21 11:04:16;;;;;;;11.52;2.25;;;18.30;99.90;;;;;;6158947;23;20021;-85
2022/05/21 11:07:19;;;;;;;9.15;2.10;;;17.90;99.90;;;;;;6088475;23;20036;-85
2022/05/21 11:09:55;;;;;;;10.35;2.20;;;17.50;99.90;;;;;;6184956;23;20021;-85
2022/05/21 11:12:29;;;;;;;10.13;2.33;;;17.40;99.90;;;;;;6154072;23;20446;-85
2022/05/21 11:15:23;;;;;;;10.10;2.75;;;17.40;99.90;;;;;;6155905;23;20017;-85
2022/05/21 11:18:02;;;;;;;9.93;1.90;;;17.30;99.90;;;;;;6152457;23;20025;-85
2022/05/21 11:20:36;;;;;;;9.52;2.08;;;17.40;99.90;;;;;;6155695;23;20513;-85
2022/05/21 11:23:01;;;;;;;;;;;17.40;99.90;;;;;;6154189;23;20021;-85
2022/05/21 11:25:34;;;;;;;9.32;2.10;;;17.30;99.90;;;;;;6153356;23;19924;-86
2022/05/21 11:28:30;;;;;;;9.23;2.20;;;17.30;99.90;;;;;;6153528;23;20017;-85
2022/05/21 11:31:00;;;;;;;7.25;1.70;;;17.50;99.90;;;;;;6152717;23;20017;-85
2022/05/21 11:39:04;;;;;;;9.27;1.92;;;18.40;99.90;;;;;;6154590;23;20026;-85
2022/05/21 11:42:07;;;;;;;6.90;1.80;;;18.60;99.90;;;;;;6155388;23;20485;-85
2022/05/21 11:44:58;;;;;;;7.00;1.80;;;18.50;99.90;;;;;;6155771;23;20021;-85
2022/05/21 11:47:26;;;;;;;7.63;2.20;;;18.40;99.90;;;;;;6155701;23;20148;-85
2022/05/21 11:49:58;;;;;;;7.57;1.90;;;18.60;99.90;;;;;;6153591;23;20025;-85
2022/05/21 11:52:26;;;;;;;6.78;1.77;;;18.70;99.90;;;;;;6152301;23;20457;-85
2022/05/21 11:54:58;;;;;;;6.40;2.03;;;18.60;99.90;;;;;;6153339;23;20078;-86
2022/05/21 11:57:43;;;;;;;7.28;1.85;;;18.80;99.90;;;;;;6154122;23;20346;-88
2022/05/21 12:00:18;;;;;;;8.38;1.80;;;19.10;99.90;;;;;;6154771;23;20014;-86
2022/05/21 12:02:53;;;;;;;8.18;1.80;;;19.20;99.90;;;;;;6153548;23;20025;-89
2022/05/21 12:05:41;;;;;;;10.15;2.10;;;18.80;99.90;;;;;;6153750;23;20022;-87
2022/05/21 12:08:22;;;;;;;7.05;1.98;;;18.50;99.90;;;;;;6149389;23;20021;-86
2022/05/21 12:11:06;;;;;;;8.07;1.98;;;18.60;99.90;;;;;;6165874;23;20016;-91
2022/05/21 12:13:35;;;;;;;11.77;2.08;;;18.70;99.90;;;;;;6158035;23;20072;-90
2022/05/21 12:16:20;;;;;;;7.57;2.00;;;18.40;99.90;;;;;;6184873;23;20013;-88
2022/05/21 12:18:55;;;;;;;7.35;1.90;;;18.20;99.90;;;;;;6158323;23;20017;-88
2022/05/21 12:21:30;;;;;;;7.50;2.10;;;18.50;99.90;;;;;;6184572;23;20024;-86
2022/05/21 12:23:56;;;;;;;8.82;2.30;;;18.90;99.90;;;;;;6158493;23;20453;-86
2022/05/21 12:26:27;;;;;;;7.72;2.05;;;19.20;99.90;;;;;;6158951;23;20044;-87
2022/05/21 12:28:56;;;;;;;10.73;2.30;;;19.30;99.90;;;;;;6184650;23;20028;-86
2022/05/21 12:31:25;;;;;;;9.30;2.30;;;19.30;99.90;;;;;;6158517;23;20016;-86
2022/05/21 12:34:04;;;;;;;10.77;2.13;;;19.50;99.90;;;;;;6158362;23;20450;-85
2022/05/21 12:36:46;;;;;;;10.25;2.47;;;19.10;99.90;;;;;;6185446;23;20013;-85
2022/05/21 12:39:16;;;;;;;7.70;1.90;;;19.00;99.90;;;;;;6185159;23;20087;-85
2022/05/21 12:41:47;;;;;;;8.25;2.13;;;19.40;99.90;;;;;;6183450;23;20013;-85
2022/05/21 12:44:45;;;;;;;10.52;2.28;;;19.20;99.90;;;;;;6183204;23;20016;-84
2022/05/21 12:47:13;;;;;;;11.32;2.20;;;19.00;99.90;;;;;;6157950;23;20017;-86
2022/05/21 12:49:51;;;;;;;10.10;2.45;;;18.50;99.90;;;;;;6157132;23;20052;-85
2022/05/21 12:52:46;;;;;;;8.00;2.28;;;18.30;99.90;;;;;;6158248;23;20017;-85
2022/05/21 12:55:33;;;;;;;8.65;2.10;;;18.20;99.90;;;;;;6183678;23;20389;-86
2022/05/21 12:58:20;;;;;;;9.52;2.45;;;18.50;99.90;;;;;;6184677;23;20025;-85
2022/05/21 13:00:52;;;;;;;9.32;2.20;;;18.20;99.90;;;;;;6185102;23;20389;-85
2022/05/21 13:03:19;;;;;;;9.95;2.53;;;18.00;99.90;;;;;;6157855;23;20028;-85
2022/05/21 13:05:55;;;;;;;7.88;2.15;;;17.80;99.90;;;;;;6157712;23;20013;-84
2022/05/21 13:08:22;;;;;;;9.05;2.35;;;17.80;99.90;;;;;;6184120;23;20017;-88
2022/05/21 13:11:15;;;;;;;10.35;2.25;;;18.30;99.90;;;;;;6151907;23;20028;-87
2022/05/21 13:13:43;;;;;;;9.20;2.08;;;18.90;99.90;;;;;;6155509;23;20036;-89
2022/05/21 13:16:15;;;;;;;9.55;2.38;;;19.40;99.90;;;;;;6153557;23;20021;-89
2022/05/21 13:18:44;;;;;;;8.25;2.10;;;19.60;99.90;;;;;;6153335;23;20018;-92
2022/05/21 13:21:22;;;;;;;7.65;2.10;;;19.40;99.90;;;;;;6155491;23;20026;-92
2022/05/21 13:24:13;;;;;;;10.00;2.00;;;19.30;99.90;;;;;;6152611;23;20028;-88
2022/05/21 13:26:39;;;;;;;7.13;2.00;;;19.50;99.90;;;;;;6153176;23;20014;-88
2022/05/21 13:29:27;;;;;;;9.38;2.05;;;19.70;99.90;;;;;;6155376;23;20131;-91